createdAt,value
2018-12-13T00:02:35.668Z,0.24
2018-12-13T00:05:39.008Z,0.30
2018-12-13T00:08:42.318Z,0.29
2018-12-13T00:11:45.724Z,0.28
2018-12-13T00:14:49.131Z,0.22
2018-12-13T00:17:52.437Z,0.12
2018-12-13T00:20:55.752Z,0.18
2018-12-13T00:23:59.120Z,0.15
2018-12-13T00:27:02.527Z,0.14
2018-12-13T00:30:06.129Z,0.08
2018-12-13T00:33:09.524Z,0.10
2018-12-13T00:36:12.927Z,0.13
2018-12-13T00:39:16.316Z,0.18
2018-12-13T00:42:19.694Z,0.19
2018-12-13T00:45:23.014Z,0.17
2018-12-13T00:48:26.317Z,0.24
2018-12-13T00:51:29.737Z,0.19
2018-12-13T00:54:33.113Z,0.22
2018-12-13T00:57:36.422Z,0.21
2018-12-13T01:00:39.825Z,0.19
2018-12-13T01:03:43.157Z,0.18
2018-12-13T01:06:46.509Z,0.22
2018-12-13T01:09:49.913Z,0.29
2018-12-13T01:12:53.226Z,0.15
2018-12-13T01:15:56.621Z,0.21
2018-12-13T01:18:59.904Z,0.17
2018-12-13T01:22:03.209Z,0.17
2018-12-13T01:25:06.659Z,0.17
2018-12-13T01:28:10.057Z,0.23
2018-12-13T01:31:13.433Z,0.18
2018-12-13T01:34:16.797Z,0.18
2018-12-13T01:37:20.110Z,0.12
2018-12-13T01:40:23.420Z,0.15
2018-12-13T01:43:26.846Z,0.27
2018-12-13T01:46:30.177Z,0.12
2018-12-13T01:49:33.493Z,0.00
2018-12-13T01:52:36.853Z,-0.08
2018-12-13T01:55:40.302Z,-0.16
2018-12-13T01:58:43.705Z,-0.21
2018-12-13T02:05:03.996Z,-0.27
2018-12-13T02:08:07.380Z,-0.26
2018-12-13T02:11:10.880Z,-0.31
2018-12-13T02:14:14.193Z,-0.31
2018-12-13T02:17:17.534Z,-0.33
2018-12-13T02:20:20.872Z,-0.24
2018-12-13T02:23:24.198Z,-0.22
2018-12-13T02:26:27.652Z,-0.29
2018-12-13T02:29:31.109Z,-0.26
2018-12-13T02:32:34.513Z,-0.29
2018-12-13T02:35:38.135Z,-0.41
2018-12-13T02:38:41.602Z,-0.46
2018-12-13T02:41:44.959Z,-0.42
2018-12-13T02:44:48.289Z,-0.42
2018-12-13T02:47:51.653Z,-0.39
2018-12-13T02:50:54.966Z,-0.52
2018-12-13T02:53:58.316Z,-0.58
2018-12-13T02:57:01.679Z,-0.58
2018-12-13T03:00:06.499Z,-0.65
2018-12-13T03:03:09.904Z,-0.60
2018-12-13T03:06:13.241Z,-0.62
2018-12-13T03:09:16.608Z,-0.59
2018-12-13T03:12:19.947Z,-0.63
2018-12-13T03:15:23.256Z,-0.57
2018-12-13T03:18:26.576Z,-0.52
2018-12-13T03:21:29.982Z,-0.55
2018-12-13T03:24:33.397Z,-0.50
2018-12-13T03:27:36.824Z,-0.49
2018-12-13T03:30:40.224Z,-0.47
2018-12-13T03:33:43.639Z,-0.41
2018-12-13T03:36:46.953Z,-0.42
2018-12-13T03:39:50.270Z,-0.36
2018-12-13T03:42:53.853Z,-0.43
2018-12-13T03:45:57.151Z,-0.45
2018-12-13T03:49:00.463Z,-0.56
2018-12-13T03:52:03.878Z,-0.52
2018-12-13T03:55:07.324Z,-0.52
2018-12-13T03:58:10.666Z,-0.48
2018-12-13T04:01:13.977Z,-0.51
2018-12-13T04:04:17.302Z,-0.45
2018-12-13T04:07:27.621Z,-0.50
2018-12-13T04:10:26.101Z,-0.61
2018-12-13T04:13:29.414Z,-0.66
2018-12-13T04:16:32.776Z,-0.66
2018-12-13T04:19:36.141Z,-0.52
2018-12-13T04:22:39.538Z,-0.66
2018-12-13T04:25:43.006Z,-0.63
2018-12-13T04:28:46.328Z,-0.68
2018-12-13T04:31:50.713Z,-0.73
2018-12-13T04:34:54.320Z,-0.67
2018-12-13T04:37:57.653Z,-0.74
2018-12-13T04:41:00.990Z,-0.81
2018-12-13T04:44:04.410Z,-0.84
2018-12-13T04:47:07.962Z,-0.83
2018-12-13T04:53:28.085Z,-0.77
2018-12-13T04:56:31.425Z,-0.66
2018-12-13T04:59:34.801Z,-0.71
2018-12-13T05:02:38.138Z,-0.65
2018-12-13T05:05:41.864Z,-0.67
2018-12-13T05:08:45.329Z,-0.67
2018-12-13T05:11:48.791Z,-0.71
2018-12-13T05:14:52.308Z,-0.73
2018-12-13T05:17:55.869Z,-0.76
2018-12-13T05:20:59.199Z,-0.70
2018-12-13T05:24:02.557Z,-0.69
2018-12-13T05:27:05.889Z,-0.70
2018-12-13T05:30:09.322Z,-0.71
2018-12-13T05:33:12.949Z,-0.62
2018-12-13T05:36:16.638Z,-0.58
2018-12-13T05:39:20.069Z,-0.70
2018-12-13T05:42:23.504Z,-0.70
2018-12-13T05:45:26.808Z,-0.77
2018-12-13T05:48:30.131Z,-0.76
2018-12-13T05:51:33.489Z,-0.76
2018-12-13T05:54:36.833Z,-0.79
2018-12-13T05:57:40.146Z,-0.76
2018-12-13T06:00:43.504Z,-0.79
2018-12-13T06:03:46.880Z,-0.83
2018-12-13T06:06:50.280Z,-0.95
2018-12-13T06:09:53.619Z,-0.99
2018-12-13T06:12:56.920Z,-0.96
2018-12-13T06:16:00.317Z,-0.91
2018-12-13T06:19:03.780Z,-0.87
2018-12-13T06:22:07.250Z,-0.86
2018-12-13T06:25:10.659Z,-0.88
2018-12-13T06:28:14.029Z,-0.88
2018-12-13T06:31:17.783Z,-0.88
2018-12-13T06:34:21.119Z,-0.84
2018-12-13T06:37:24.535Z,-0.80
2018-12-13T06:40:27.916Z,-0.81
2018-12-13T06:43:31.233Z,-0.80
2018-12-13T06:46:34.594Z,-0.86
2018-12-13T06:49:37.930Z,-0.88
2018-12-13T06:52:41.574Z,-0.77
2018-12-13T06:55:45.037Z,-0.80
2018-12-13T06:58:48.349Z,-0.75
2018-12-13T07:01:51.704Z,-0.74
2018-12-13T07:04:55.888Z,-0.64
2018-12-13T07:07:59.286Z,-0.65
2018-12-13T07:11:02.621Z,-0.69
2018-12-13T07:14:06.476Z,-0.67
2018-12-13T07:17:09.970Z,-0.75
2018-12-13T07:20:13.283Z,-0.77
2018-12-13T07:23:17.506Z,-0.74
2018-12-13T07:26:20.910Z,-0.62
2018-12-13T07:29:24.258Z,-0.61
2018-12-13T07:32:27.890Z,-0.61
2018-12-13T07:35:31.224Z,-0.58
2018-12-13T07:38:35.452Z,-0.58
2018-12-13T07:41:39.294Z,-0.67
2018-12-13T07:44:42.649Z,-0.64
2018-12-13T07:47:46.744Z,-0.67
2018-12-13T07:50:52.404Z,-0.64
2018-12-13T07:53:55.772Z,-0.56
2018-12-13T07:56:59.145Z,-0.52
2018-12-13T08:00:02.466Z,-0.47
2018-12-13T08:03:05.865Z,-0.38
2018-12-13T08:06:09.196Z,-0.42
2018-12-13T08:09:12.542Z,-0.43
2018-12-13T08:12:15.859Z,-0.37
2018-12-13T08:15:19.843Z,-0.33
2018-12-13T08:18:23.306Z,-0.34
2018-12-13T08:21:26.663Z,-0.28
2018-12-13T08:24:29.973Z,-0.30
2018-12-13T08:27:33.329Z,-0.27
2018-12-13T08:30:36.970Z,-0.32
2018-12-13T08:33:40.374Z,-0.26
2018-12-13T08:36:43.825Z,-0.34
2018-12-13T08:39:47.184Z,-0.38
2018-12-13T08:42:50.497Z,-0.36
2018-12-13T08:45:53.946Z,-0.37
2018-12-13T08:48:57.325Z,-0.41
2018-12-13T08:52:00.673Z,-0.26
2018-12-13T08:55:04.912Z,-0.11
2018-12-13T08:58:08.389Z,-0.22
2018-12-13T09:01:11.851Z,-0.30
2018-12-13T09:04:15.292Z,-0.25
2018-12-13T09:07:18.750Z,-0.16
2018-12-13T09:10:22.161Z,-0.08
2018-12-13T09:13:25.486Z,0.00
2018-12-13T09:16:31.687Z,0.03
2018-12-13T09:19:34.124Z,-0.09
2018-12-13T09:22:37.465Z,-0.01
2018-12-13T09:25:41.043Z,0.06
2018-12-13T09:28:44.333Z,0.07
2018-12-13T09:31:47.735Z,0.09
2018-12-13T09:34:51.166Z,-0.01
2018-12-13T09:37:54.455Z,0.07
2018-12-13T09:44:14.546Z,0.18
2018-12-13T09:47:17.889Z,0.12
2018-12-13T09:50:21.254Z,-0.01
2018-12-13T09:53:24.580Z,-0.11
2018-12-13T09:56:27.925Z,-0.12
2018-12-13T09:59:31.280Z,-0.16
2018-12-13T10:02:34.688Z,-0.01
2018-12-13T10:05:38.029Z,-0.06
2018-12-13T10:08:46.290Z,0.06
2018-12-13T10:11:46.882Z,0.20
2018-12-13T10:14:50.284Z,0.22
2018-12-13T10:17:53.657Z,0.19
2018-12-13T10:20:57.069Z,0.05
2018-12-13T10:24:00.425Z,0.02
2018-12-13T10:27:03.868Z,0.12
2018-12-13T10:30:07.443Z,0.18
2018-12-13T10:33:10.821Z,0.20
2018-12-13T10:36:14.200Z,0.14
2018-12-13T10:39:17.569Z,-0.08
2018-12-13T10:42:20.914Z,-0.06
2018-12-13T10:45:24.279Z,0.11
2018-12-13T10:48:27.601Z,0.21
2018-12-13T10:51:31.063Z,0.24
2018-12-13T10:54:34.375Z,0.22
2018-12-13T10:57:37.714Z,0.30
2018-12-13T11:00:47.010Z,0.15
2018-12-13T11:03:50.435Z,0.19
2018-12-13T11:06:53.730Z,0.26
2018-12-13T11:09:57.179Z,0.22
2018-12-13T11:13:00.616Z,0.21
2018-12-13T11:16:04.093Z,0.14
2018-12-13T11:22:44.466Z,0.12
2018-12-13T11:25:47.777Z,0.33
2018-12-13T11:29:09.080Z,0.37
2018-12-13T11:32:12.470Z,0.39
2018-12-13T11:35:15.853Z,0.54
2018-12-13T11:38:19.165Z,0.76
2018-12-13T11:41:22.552Z,0.89
2018-12-13T11:44:26.000Z,1.14
2018-12-13T11:47:29.330Z,0.90
2018-12-13T11:50:32.681Z,1.00
2018-12-13T11:53:36.302Z,0.80
2018-12-13T11:56:39.879Z,0.62
2018-12-13T11:59:43.306Z,0.52
2018-12-13T12:02:46.616Z,0.50
2018-12-13T12:05:49.938Z,0.64
2018-12-13T12:08:53.245Z,0.58
2018-12-13T12:11:56.806Z,0.65
2018-12-13T12:15:00.272Z,0.44
2018-12-13T12:18:03.603Z,0.53
2018-12-13T12:21:06.913Z,0.53
2018-12-13T12:24:10.238Z,0.59
2018-12-13T12:27:13.571Z,0.52
2018-12-13T12:30:17.252Z,0.42
2018-12-13T12:33:20.658Z,0.31
2018-12-13T12:36:23.969Z,0.26
2018-12-13T12:39:27.357Z,0.23
2018-12-13T12:42:30.710Z,0.18
2018-12-13T12:45:34.046Z,0.18
2018-12-13T12:48:37.424Z,0.19
2018-12-13T12:51:40.775Z,0.14
2018-12-13T12:54:44.171Z,0.11
2018-12-13T12:57:47.483Z,0.13
2018-12-13T13:00:51.678Z,0.23
2018-12-13T13:03:54.983Z,0.17
2018-12-13T13:06:58.326Z,0.22
2018-12-13T13:10:01.629Z,0.12
2018-12-13T13:13:04.970Z,0.05
2018-12-13T13:16:08.326Z,0.00
2018-12-13T13:19:12.961Z,-0.08
2018-12-13T13:22:19.048Z,-0.07
2018-12-13T13:25:22.410Z,0.08
2018-12-13T13:28:26.945Z,0.05
2018-12-13T13:31:30.449Z,0.02
2018-12-13T13:34:33.841Z,-0.09
2018-12-13T13:37:37.146Z,-0.21
2018-12-13T13:40:40.536Z,-0.31
2018-12-13T13:43:43.893Z,-0.43
2018-12-13T13:46:47.221Z,-0.47
2018-12-13T13:49:50.546Z,-0.51
2018-12-13T13:52:53.877Z,-0.54
2018-12-13T13:55:57.206Z,-0.57
2018-12-13T13:59:00.613Z,-0.49
2018-12-13T14:02:04.263Z,-0.49
2018-12-13T14:05:07.717Z,-0.44
2018-12-13T14:11:25.273Z,-0.45
2018-12-13T14:14:29.598Z,-0.53
2018-12-13T14:17:32.990Z,-0.51
2018-12-13T14:20:36.418Z,-0.41
2018-12-13T14:23:39.819Z,-0.43
2018-12-13T14:26:43.197Z,-0.42
2018-12-13T14:29:46.561Z,-0.33
2018-12-13T14:32:49.921Z,-0.31
2018-12-13T14:35:53.334Z,-0.35
2018-12-13T14:38:56.682Z,-0.37
2018-12-13T14:42:00.090Z,-0.39
2018-12-13T14:45:04.106Z,-0.35
2018-12-13T14:48:08.969Z,-0.34
2018-12-13T14:51:12.571Z,-0.43
2018-12-13T14:54:15.894Z,-0.39
2018-12-13T14:57:19.350Z,-0.44
2018-12-13T15:00:22.690Z,-0.46
2018-12-13T15:03:26.009Z,-0.45
2018-12-13T15:06:29.440Z,-0.44
2018-12-13T15:09:32.749Z,-0.44
2018-12-13T15:12:36.206Z,-0.48
2018-12-13T15:18:57.914Z,-0.59
2018-12-13T15:22:01.625Z,-0.81
2018-12-13T15:25:05.723Z,-0.89
2018-12-13T15:28:09.382Z,-0.99
2018-12-13T15:31:13.145Z,-1.08
2018-12-13T15:34:16.615Z,-1.10
2018-12-13T15:37:19.974Z,-1.05
2018-12-13T15:40:23.398Z,-0.96
2018-12-13T15:43:26.840Z,-0.91
2018-12-13T15:46:30.238Z,-0.89
2018-12-13T15:49:33.729Z,-0.90
2018-12-13T15:52:37.098Z,-0.87
2018-12-13T15:55:40.402Z,-0.80
2018-12-13T15:58:43.846Z,-0.82
2018-12-13T16:01:47.239Z,-0.74
2018-12-13T16:04:50.569Z,-0.72
2018-12-13T16:07:53.989Z,-0.70
2018-12-13T16:10:57.339Z,-0.63
2018-12-13T16:14:05.049Z,-0.68
2018-12-13T16:17:08.437Z,-0.61
2018-12-13T16:20:11.758Z,-0.65
2018-12-13T16:23:15.127Z,-0.63
2018-12-13T16:26:18.510Z,-0.62
2018-12-13T16:29:21.849Z,-0.56
2018-12-13T16:32:25.187Z,-0.73
2018-12-13T16:35:28.522Z,-0.70
2018-12-13T16:38:32.747Z,-0.73
2018-12-13T16:41:36.120Z,-0.78
2018-12-13T16:47:59.301Z,-0.84
2018-12-13T16:51:02.721Z,-0.83
2018-12-13T16:54:06.134Z,-0.87
2018-12-13T17:00:26.401Z,-0.83
2018-12-13T17:03:39.373Z,-0.85
2018-12-13T17:06:42.734Z,-0.89
2018-12-13T17:09:46.137Z,-0.88
2018-12-13T17:12:49.574Z,-0.87
2018-12-13T17:15:53.854Z,-0.82
2018-12-13T17:18:57.191Z,-0.87
2018-12-13T17:22:00.606Z,-0.85
2018-12-13T17:25:04.600Z,-0.87
2018-12-13T17:28:08.094Z,-0.93
2018-12-13T17:31:11.498Z,-1.02
2018-12-13T17:34:14.858Z,-1.07
2018-12-13T17:37:18.186Z,-0.97
2018-12-13T17:40:23.231Z,-1.01
2018-12-13T17:43:26.746Z,-0.96
2018-12-13T17:46:30.077Z,-0.99
2018-12-13T17:49:33.525Z,-1.02
2018-12-13T17:52:36.889Z,-1.04
2018-12-13T17:55:40.212Z,-1.13
2018-12-13T17:58:43.618Z,-1.09
2018-12-13T18:01:46.977Z,-1.13
2018-12-13T18:04:50.325Z,-1.11
2018-12-13T18:07:53.757Z,-1.15
2018-12-13T18:10:57.133Z,-1.15
2018-12-13T18:14:00.447Z,-1.17
2018-12-13T18:17:03.901Z,-1.13
2018-12-13T18:20:07.348Z,-1.06
2018-12-13T18:23:10.729Z,-1.06
2018-12-13T18:26:14.061Z,-0.96
2018-12-13T18:29:17.378Z,-0.89
2018-12-13T18:32:20.825Z,-0.83
2018-12-13T18:35:24.250Z,-0.83
2018-12-13T18:38:27.557Z,-0.88
2018-12-13T18:41:30.877Z,-0.75
2018-12-13T18:44:34.224Z,-0.81
2018-12-13T18:47:37.668Z,-0.83
2018-12-13T18:50:40.961Z,-0.83
2018-12-13T18:53:44.331Z,-0.84
2018-12-13T18:56:47.766Z,-0.86
2018-12-13T18:59:51.225Z,-0.97
2018-12-13T19:02:54.615Z,-0.96
2018-12-13T19:05:57.969Z,-1.01
2018-12-13T19:09:01.282Z,-1.01
2018-12-13T19:12:04.798Z,-1.03
2018-12-13T19:15:08.150Z,-1.03
2018-12-13T19:18:11.513Z,-1.04
2018-12-13T19:21:14.843Z,-0.98
2018-12-13T19:24:18.150Z,-1.06
2018-12-13T19:27:21.525Z,-1.07
2018-12-13T19:30:25.004Z,-1.17
2018-12-13T19:33:28.315Z,-1.21
2018-12-13T19:36:46.281Z,-1.17
2018-12-13T19:39:49.645Z,-1.15
2018-12-13T19:42:53.045Z,-1.11
2018-12-13T19:45:56.834Z,-1.08
2018-12-13T19:49:00.295Z,-1.19
2018-12-13T19:52:03.640Z,-1.17
2018-12-13T19:55:08.653Z,-1.20
2018-12-13T19:58:12.085Z,-1.27
2018-12-13T20:01:16.671Z,-1.22
2018-12-13T20:04:20.297Z,-1.27
2018-12-13T20:07:24.737Z,-1.27
2018-12-13T20:10:29.297Z,-1.31
2018-12-13T20:13:32.967Z,-1.22
2018-12-13T20:16:36.570Z,-1.18
2018-12-13T20:19:41.688Z,-1.24
2018-12-13T20:22:46.280Z,-1.30
2018-12-13T20:25:49.938Z,-1.32
2018-12-13T20:28:55.361Z,-1.34
2018-12-13T20:31:59.053Z,-1.36
2018-12-13T20:35:02.769Z,-1.31
2018-12-13T20:38:09.301Z,-1.38
2018-12-13T20:41:13.345Z,-1.31
2018-12-13T20:44:26.635Z,-1.33
2018-12-13T20:47:30.230Z,-1.33
2018-12-13T20:50:33.595Z,-1.32
2018-12-13T20:53:37.137Z,-1.28
2018-12-13T20:56:40.453Z,-1.27
2018-12-13T20:59:43.813Z,-1.28
2018-12-13T21:02:47.217Z,-1.34
2018-12-13T21:05:50.975Z,-1.45
2018-12-13T21:08:54.448Z,-1.53
2018-12-13T21:11:58.061Z,-1.56
2018-12-13T21:15:01.519Z,-1.58
2018-12-13T21:18:05.051Z,-1.59
2018-12-13T21:21:08.451Z,-1.51
2018-12-13T21:24:11.804Z,-1.60
2018-12-13T21:27:15.172Z,-1.59
2018-12-13T21:30:18.780Z,-1.58
2018-12-13T21:33:22.181Z,-1.63
2018-12-13T21:36:25.561Z,-1.53
2018-12-13T21:39:29.147Z,-1.55
2018-12-13T21:42:32.541Z,-1.50
2018-12-13T21:45:36.188Z,-1.51
2018-12-13T21:48:39.730Z,-1.54
2018-12-13T21:51:43.128Z,-1.55
2018-12-13T21:54:46.533Z,-1.65
2018-12-13T21:57:49.942Z,-1.65
2018-12-13T22:00:53.394Z,-1.62
2018-12-13T22:03:56.807Z,-1.61
2018-12-13T22:07:00.127Z,-1.72
2018-12-13T22:10:05.167Z,-1.62
2018-12-13T22:13:08.490Z,-1.61
2018-12-13T22:16:11.805Z,-1.60
2018-12-13T22:19:15.114Z,-1.58
2018-12-13T22:22:18.649Z,-1.59
2018-12-13T22:25:22.030Z,-1.62
2018-12-13T22:28:25.353Z,-1.64
2018-12-13T22:31:28.702Z,-1.61
2018-12-13T22:34:32.024Z,-1.63
2018-12-13T22:37:35.336Z,-1.70
2018-12-13T22:40:39.349Z,-1.66
2018-12-13T22:43:42.678Z,-1.57
2018-12-13T22:46:46.094Z,-1.47
2018-12-13T22:49:49.406Z,-1.53
2018-12-13T22:52:52.725Z,-1.58
2018-12-13T22:55:56.097Z,-1.70
2018-12-13T22:58:59.412Z,-1.72
2018-12-13T23:02:02.739Z,-1.74
2018-12-13T23:05:06.668Z,-1.70
2018-12-13T23:08:10.060Z,-1.69
2018-12-13T23:11:13.718Z,-1.67
2018-12-13T23:14:17.034Z,-1.68
2018-12-13T23:17:20.976Z,-1.68
2018-12-13T23:20:24.282Z,-1.68
2018-12-13T23:23:27.691Z,-1.68
2018-12-13T23:26:32.762Z,-1.69
2018-12-13T23:29:36.068Z,-1.65
2018-12-13T23:32:39.434Z,-1.64
2018-12-13T23:35:42.809Z,-1.61
2018-12-13T23:38:46.209Z,-1.70
2018-12-13T23:41:49.522Z,-1.71
2018-12-13T23:44:52.925Z,-1.68
2018-12-13T23:47:56.243Z,-1.67
2018-12-13T23:50:59.580Z,-1.72
2018-12-13T23:54:03.081Z,-1.70
2018-12-13T23:57:06.438Z,-1.66
